Time;durP1;ratioP1;P1;durP2;ratioP2;P2;SDS_P1;SDS_P2;PMS_P1;PMS_P2;Temp;Humidity;BMP_temperature;BMP_pressure;BME280_temperature;BME280_humidity;BME280_pressure;Samples;Min_cycle;Max_cycle;Signal;HPM_P1;HPM_P2
2023/03/25 00:01:36;;;;;;;1.17;0.73;;;;;;;8.94;100.00;153655.03;5081036;28;20452;-77
2023/03/25 00:04:04;;;;;;;1.03;0.73;;;;;;;8.88;100.00;153640.81;5100447;27;20522;-77
2023/03/25 00:06:33;;;;;;;1.60;0.57;;;;;;;8.87;100.00;153636.94;5106962;28;20471;-77
2023/03/25 00:09:01;;;;;;;1.00;0.53;;;;;;;8.82;100.00;153623.97;5081721;28;20473;-77
2023/03/25 00:11:28;;;;;;;0.90;0.40;;;;;;;8.75;100.00;153607.19;5065766;28;20459;-78
2023/03/25 00:13:55;;;;;;;1.03;0.50;;;;;;;8.68;100.00;153587.81;5079282;28;20447;-77
2023/03/25 00:16:21;;;;;;;1.07;0.50;;;;;;;8.65;100.00;153580.03;5102733;28;20433;-77
2023/03/25 00:18:48;;;;;;;0.83;0.40;;;;;;;8.61;100.00;153569.69;5086362;28;20454;-78
2023/03/25 00:21:17;;;;;;;1.50;0.70;;;;;;;8.58;100.00;153564.53;5081419;28;20458;-78
2023/03/25 00:23:45;;;;;;;1.17;0.43;;;;;;;8.60;100.00;153568.44;5080306;28;20515;-78
2023/03/25 00:26:12;;;;;;;0.77;0.40;;;;;;;8.55;100.00;153556.75;5088472;28;20536;-76
2023/03/25 00:28:39;;;;;;;1.77;0.60;;;;;;;8.48;100.00;153538.69;5086905;28;20457;-76
2023/03/25 00:31:07;;;;;;;1.10;0.40;;;;;;;8.44;100.00;153527.06;5087505;28;20473;-76
2023/03/25 00:33:35;;;;;;;1.10;0.60;;;;;;;8.43;100.00;153525.75;5072948;28;20474;-77
2023/03/25 00:36:03;;;;;;;1.10;0.50;;;;;;;8.41;100.00;153520.59;5083507;28;20461;-78
2023/03/25 00:38:34;;;;;;;3.30;0.60;;;;;;;8.38;100.00;153511.53;5083325;28;20446;-77
2023/03/25 00:41:21;;;;;;;1.00;0.40;;;;;;;8.36;100.00;153506.38;5084010;28;20454;-78
2023/03/25 00:43:48;;;;;;;1.30;0.47;;;;;;;8.29;100.00;153488.25;5068194;28;20454;-79
2023/03/25 00:46:16;;;;;;;1.00;0.53;;;;;;;8.24;100.00;153475.28;5083897;28;20450;-78
2023/03/25 00:48:43;;;;;;;1.40;0.60;;;;;;;8.20;100.00;153466.28;5069975;28;20643;-78
2023/03/25 00:51:12;;;;;;;0.70;0.40;;;;;;;8.18;100.00;153461.06;5085667;28;20481;-78
2023/03/25 00:53:40;;;;;;;1.10;0.80;;;;;;;8.18;100.00;153459.81;5065913;28;20947;-78
2023/03/25 00:56:07;;;;;;;2.63;0.70;;;;;;;8.09;100.00;153437.81;5089334;28;20507;-78
2023/03/25 00:58:35;;;;;;;1.00;0.50;;;;;;;8.09;100.00;153436.53;5086763;28;20459;-78
2023/03/25 01:01:09;;;;;;;2.03;0.83;;;;;;;8.11;100.00;153441.69;5086005;28;20453;-77
2023/03/25 01:03:36;;;;;;;3.63;0.93;;;;;;;8.09;100.00;153437.81;5083989;28;20933;-77
2023/03/25 01:06:04;;;;;;;1.00;0.57;;;;;;;8.06;100.00;153430.06;5082341;28;20458;-78
2023/03/25 01:08:30;;;;;;;1.23;0.67;;;;;;;7.98;100.00;153410.69;5091408;28;20517;-78
2023/03/25 01:10:59;;;;;;;1.20;0.40;;;;;;;7.94;100.00;153400.34;5082535;28;20480;-78
2023/03/25 01:13:25;;;;;;;1.80;0.70;;;;;;;7.91;100.00;153391.31;5084381;28;20491;-78
2023/03/25 01:15:53;;;;;;;1.87;0.70;;;;;;;7.90;100.00;153388.72;5086214;28;20456;-78
2023/03/25 01:18:20;;;;;;;1.30;0.80;;;;;;;7.95;100.00;153401.63;5088323;28;20536;-78
2023/03/25 01:20:47;;;;;;;1.37;0.80;;;;;;;7.86;100.00;153379.66;5075560;28;20453;-78
2023/03/25 01:23:13;;;;;;;1.40;0.60;;;;;;;7.86;100.00;153379.66;5082130;28;20982;-78
2023/03/25 01:25:40;;;;;;;2.33;0.67;;;;;;;7.83;100.00;153370.66;5084096;28;20489;-77
2023/03/25 01:28:07;;;;;;;1.53;0.80;;;;;;;7.80;100.00;153362.88;5090632;28;20563;-77
2023/03/25 01:30:34;;;;;;;3.00;0.80;;;;;;;7.79;100.00;153360.28;5092783;28;21754;-77
2023/03/25 01:33:02;;;;;;;1.63;0.90;;;;;;;7.73;100.00;153344.81;5074284;28;20438;-76
2023/03/25 01:35:29;;;;;;;1.90;1.10;;;;;;;7.72;100.00;153342.22;5086085;28;21019;-78
2023/03/25 01:37:56;;;;;;;1.50;0.57;;;;;;;7.72;100.00;153342.22;5094083;28;20442;-77
2023/03/25 01:40:23;;;;;;;2.17;0.73;;;;;;;7.65;100.00;153324.16;5078958;28;20539;-77
2023/03/25 01:42:50;;;;;;;1.30;0.90;;;;;;;7.68;100.00;153333.16;5075791;28;20975;-77
2023/03/25 01:45:23;;;;;;;1.20;0.70;;;;;;;7.67;100.00;153329.31;5090506;28;20549;-77
2023/03/25 01:47:57;;;;;;;1.23;0.80;;;;;;;7.64;100.00;153321.56;5090968;28;20560;-77
2023/03/25 01:50:27;;;;;;;2.57;1.00;;;;;;;7.66;100.00;153326.72;5064627;28;20470;-77
2023/03/25 01:52:57;;;;;;;1.17;0.60;;;;;;;7.67;100.00;153329.31;5083093;28;20442;-77
2023/03/25 01:55:26;;;;;;;1.53;0.87;;;;;;;7.69;100.00;153334.47;5069022;28;20468;-77
2023/03/25 01:57:54;;;;;;;3.27;0.80;;;;;;;7.70;100.00;153337.06;5084778;28;21265;-78
2023/03/25 02:00:21;;;;;;;1.40;0.57;;;;;;;7.65;100.00;153325.41;5077330;28;20488;-77
2023/03/25 02:02:49;;;;;;;2.33;0.73;;;;;;;7.66;100.00;153326.72;5088360;28;20446;-78
2023/03/25 02:05:20;;;;;;;3.10;1.00;;;;;;;7.64;100.00;153321.56;5092269;28;20494;-78
2023/03/25 02:07:49;;;;;;;3.97;0.97;;;;;;;7.63;100.00;153318.94;5090769;28;20519;-77
2023/03/25 02:10:17;;;;;;;1.50;0.90;;;;;;;7.61;100.00;153313.78;5044020;28;20474;-77
2023/03/25 02:12:45;;;;;;;1.20;0.63;;;;;;;7.61;100.00;153313.78;5064434;28;20473;-77
2023/03/25 02:15:15;;;;;;;1.30;0.90;;;;;;;7.61;100.00;153313.78;5071735;28;20501;-79
2023/03/25 02:18:12;;;;;;;1.23;0.80;;;;;;;7.60;100.00;153312.50;5091748;28;20485;-76
2023/03/25 02:21:03;;;;;;;1.60;0.63;;;;;;;7.58;100.00;153307.34;5040823;28;20493;-77
2023/03/25 02:23:42;;;;;;;1.10;0.87;;;;;;;7.61;100.00;153313.78;5073891;28;20522;-77
2023/03/25 02:26:31;;;;;;;1.33;0.90;;;;;;;7.60;100.00;153312.50;5083989;28;20457;-77
2023/03/25 02:29:03;;;;;;;1.60;0.80;;;;;;;7.60;100.00;153311.25;5055867;28;20426;-76
2023/03/25 02:31:41;;;;;;;2.07;0.90;;;;;;;7.61;100.00;153313.78;5041026;28;20470;-76
2023/03/25 02:34:28;;;;;;;1.20;0.63;;;;;;;7.59;100.00;153309.94;5072919;28;20523;-77
2023/03/25 02:37:19;;;;;;;2.23;0.70;;;;;;;7.61;100.00;153315.09;5058546;28;20500;-77
2023/03/25 02:39:51;;;;;;;0.93;0.60;;;;;;;7.65;100.00;153324.16;5078331;28;20437;-76
2023/03/25 02:42:22;;;;;;;1.83;0.90;;;;;;;7.68;100.00;153331.84;5053765;28;20450;-76
2023/03/25 02:44:55;;;;;;;1.70;0.70;;;;;;;7.65;100.00;153324.16;5056110;28;20507;-77
2023/03/25 02:47:23;;;;;;;1.57;0.93;;;;;;;7.66;100.00;153326.72;5066395;28;20442;-77
2023/03/25 02:49:54;;;;;;;2.73;0.87;;;;;;;7.69;100.00;153334.47;5072354;28;20485;-76
2023/03/25 02:52:25;;;;;;;1.00;0.63;;;;;;;7.67;100.00;153329.31;5058424;28;20445;-77
2023/03/25 02:54:56;;;;;;;1.67;0.80;;;;;;;7.66;100.00;153326.72;5053148;28;20536;-76
2023/03/25 02:57:27;;;;;;;1.20;0.57;;;;;;;7.66;100.00;153328.00;5065679;28;20453;-76
2023/03/25 02:59:55;;;;;;;2.70;0.80;;;;;;;7.69;100.00;153334.47;5069119;28;20461;-76
2023/03/25 03:02:24;;;;;;;2.70;0.73;;;;;;;7.67;100.00;153329.31;5072723;28;20536;-76
2023/03/25 03:04:53;;;;;;;2.67;0.87;;;;;;;7.64;100.00;153322.84;5060814;28;20443;-76
2023/03/25 03:07:24;;;;;;;0.90;0.70;;;;;;;7.67;100.00;153330.59;5062788;28;20447;-77
2023/03/25 03:09:58;;;;;;;1.20;0.60;;;;;;;7.65;100.00;153324.16;5085004;28;20808;-77
2023/03/25 03:12:40;;;;;;;1.93;0.70;;;;;;;7.65;100.00;153324.16;5061315;28;20445;-77
2023/03/25 03:15:20;;;;;;;0.90;0.60;;;;;;;7.58;100.00;153307.34;5094770;28;20453;-77
2023/03/25 03:17:56;;;;;;;2.27;0.60;;;;;;;7.56;100.00;153300.88;5103630;28;20471;-77
2023/03/25 03:20:31;;;;;;;1.90;0.70;;;;;;;7.52;100.00;153291.81;5083496;28;20450;-76
2023/03/25 03:23:04;;;;;;;1.70;0.50;;;;;;;7.47;100.00;153278.91;5093661;28;20922;-76
2023/03/25 03:25:35;;;;;;;1.97;0.80;;;;;;;7.44;100.00;153269.91;5107736;28;20990;-76
2023/03/25 03:28:05;;;;;;;1.67;0.60;;;;;;;7.43;100.00;153267.31;5102392;28;20531;-76
2023/03/25 03:30:38;;;;;;;1.57;0.60;;;;;;;7.43;100.00;153267.31;5090120;28;20473;-76
2023/03/25 03:33:08;;;;;;;1.80;0.60;;;;;;;7.38;100.00;153254.41;5071268;28;20434;-76
2023/03/25 03:35:37;;;;;;;1.60;0.40;;;;;;;7.33;100.00;153242.78;5075014;28;20939;-77
2023/03/25 03:38:08;;;;;;;1.23;0.40;;;;;;;7.32;100.00;153240.19;5086304;28;20450;-76
2023/03/25 03:40:37;;;;;;;1.10;0.60;;;;;;;7.28;100.00;153231.13;5085569;28;20450;-78
2023/03/25 03:43:06;;;;;;;1.40;0.50;;;;;;;7.26;100.00;153225.97;5080896;28;20523;-78
2023/03/25 03:45:36;;;;;;;0.97;0.50;;;;;;;7.21;100.00;153213.06;5087382;28;20449;-78
2023/03/25 03:48:07;;;;;;;0.80;0.40;;;;;;;7.16;100.00;153200.16;5063171;28;20445;-78
2023/03/25 03:50:38;;;;;;;0.80;0.30;;;;;;;7.16;100.00;153200.16;5101295;28;20557;-78
2023/03/25 03:53:08;;;;;;;0.80;0.40;;;;;;;7.13;100.00;153192.41;5082966;28;20448;-78
2023/03/25 03:55:40;;;;;;;0.80;0.30;;;;;;;7.11;100.00;153187.25;5097392;28;20846;-78
2023/03/25 03:58:14;;;;;;;2.27;0.60;;;;;;;7.08;100.00;153179.50;5103203;28;20445;-75
2023/03/25 04:00:44;;;;;;;1.00;0.50;;;;;;;7.05;100.00;153171.75;5101479;28;20448;-76
2023/03/25 04:03:14;;;;;;;0.70;0.30;;;;;;;7.02;100.00;153164.00;5092155;28;20520;-76
2023/03/25 04:05:43;;;;;;;0.80;0.30;;;;;;;6.97;100.00;153151.09;5102310;28;20550;-75
2023/03/25 04:08:14;;;;;;;0.73;0.30;;;;;;;6.90;100.00;153133.03;5093595;28;20898;-78
2023/03/25 04:10:51;;;;;;;0.90;0.50;;;;;;;6.89;100.00;153130.44;5076813;28;20477;-75
2023/03/25 04:13:20;;;;;;;0.90;0.40;;;;;;;6.85;100.00;153120.13;5102795;28;20441;-76
2023/03/25 04:15:46;;;;;;;2.00;0.50;;;;;;;6.80;100.00;153105.91;5085056;28;20555;-76
2023/03/25 04:18:13;;;;;;;1.17;0.40;;;;;;;6.79;100.00;153104.63;5078952;28;20774;-76
2023/03/25 04:20:43;;;;;;;2.10;0.47;;;;;;;6.86;100.00;153121.44;5082645;28;20552;-76
2023/03/25 04:23:14;;;;;;;1.80;0.60;;;;;;;6.82;100.00;153111.06;5082534;28;20451;-77
2023/03/25 04:25:46;;;;;;;1.67;0.33;;;;;;;6.79;100.00;153104.63;5061221;28;20552;-76
2023/03/25 04:28:16;;;;;;;0.80;0.40;;;;;;;6.75;100.00;153094.31;5102263;28;20438;-77
2023/03/25 04:30:44;;;;;;;1.60;0.40;;;;;;;6.73;100.00;153089.13;5080864;28;20520;-77
2023/03/25 04:33:11;;;;;;;0.77;0.40;;;;;;;6.68;100.00;153077.50;5078018;28;20448;-77
2023/03/25 04:35:39;;;;;;;1.50;0.40;;;;;;;6.66;100.00;153072.38;5082870;28;20458;-77
2023/03/25 04:38:06;;;;;;;1.10;0.50;;;;;;;6.65;100.00;153068.47;5103807;28;20967;-76
2023/03/25 04:40:33;;;;;;;0.90;0.40;;;;;;;6.63;100.00;153063.31;5091463;28;20445;-77
2023/03/25 04:43:01;;;;;;;0.90;0.60;;;;;;;6.59;100.00;153053.00;5101716;28;20478;-76
2023/03/25 04:45:29;;;;;;;0.90;0.50;;;;;;;6.59;100.00;153054.28;5083845;28;20460;-76
2023/03/25 04:47:56;;;;;;;0.90;0.30;;;;;;;6.59;100.00;153053.00;5080111;28;20437;-77
2023/03/25 04:50:25;;;;;;;0.70;0.37;;;;;;;6.55;100.00;153042.66;5081767;28;20812;-77
2023/03/25 04:52:56;;;;;;;1.10;0.50;;;;;;;6.50;100.00;153029.75;5087433;28;20448;-76
2023/03/25 04:55:24;;;;;;;0.83;0.40;;;;;;;6.46;100.00;153020.72;5093922;28;20494;-77
2023/03/25 04:57:52;;;;;;;1.97;0.53;;;;;;;6.44;100.00;153015.56;5088172;28;20444;-76
2023/03/25 05:00:22;;;;;;;0.90;0.40;;;;;;;6.39;100.00;153001.38;5093813;28;20455;-76
2023/03/25 05:02:50;;;;;;;1.47;0.50;;;;;;;6.33;100.00;152985.91;5085316;28;21144;-76
2023/03/25 05:05:19;;;;;;;0.90;0.50;;;;;;;6.33;100.00;152985.91;5085298;28;20545;-76
2023/03/25 05:07:48;;;;;;;3.60;0.87;;;;;;;6.33;100.00;152985.91;5097734;28;20475;-76
2023/03/25 05:10:15;;;;;;;1.00;0.50;;;;;;;6.33;100.00;152985.91;5092905;28;20868;-76
2023/03/25 05:12:42;;;;;;;1.93;0.60;;;;;;;6.31;100.00;152980.72;5092476;28;20510;-77
2023/03/25 05:15:10;;;;;;;1.50;0.77;;;;;;;6.35;100.00;152991.06;5090239;28;20864;-76
2023/03/25 05:17:40;;;;;;;1.10;0.60;;;;;;;6.30;100.00;152978.16;5100855;28;20944;-76
2023/03/25 05:20:07;;;;;;;1.30;0.60;;;;;;;6.32;100.00;152984.63;5083913;28;20449;-76
2023/03/25 05:22:36;;;;;;;2.83;0.93;;;;;;;6.30;100.00;152978.16;5091025;28;20448;-77
2023/03/25 05:25:05;;;;;;;1.60;1.07;;;;;;;6.28;100.00;152972.97;5110689;28;20547;-76
2023/03/25 05:27:32;;;;;;;1.20;0.70;;;;;;;6.30;100.00;152978.16;5107076;28;20503;-76
2023/03/25 05:29:59;;;;;;;1.10;0.60;;;;;;;6.36;100.00;152993.63;5074686;28;20456;-77
2023/03/25 05:32:28;;;;;;;2.07;0.70;;;;;;;6.36;100.00;152994.91;5074869;28;20484;-78
2023/03/25 05:34:56;;;;;;;5.17;0.80;;;;;;;6.41;100.00;153006.53;5101486;28;21043;-77
2023/03/25 05:37:23;;;;;;;1.77;1.03;;;;;;;6.47;100.00;153022.00;5077482;28;20539;-77
2023/03/25 05:39:50;;;;;;;1.10;0.70;;;;;;;6.50;100.00;153031.06;5100843;28;20448;-78
2023/03/25 05:42:17;;;;;;;1.53;0.80;;;;;;;6.50;100.00;153031.06;5090927;28;20540;-77
2023/03/25 05:44:49;;;;;;;1.30;0.70;;;;;;;6.54;100.00;153040.13;5104851;28;20509;-77
2023/03/25 05:47:16;;;;;;;1.70;0.50;;;;;;;6.54;100.00;153041.38;5074959;28;20500;-77
2023/03/25 05:49:43;;;;;;;3.23;0.90;;;;;;;6.57;100.00;153047.81;5070820;28;20454;-77
2023/03/25 05:52:11;;;;;;;1.80;0.90;;;;;;;6.61;100.00;153058.16;5073013;28;20488;-77
2023/03/25 05:54:40;;;;;;;2.33;0.77;;;;;;;6.62;100.00;153060.72;5060101;28;20475;-76
2023/03/25 05:57:07;;;;;;;3.70;0.80;;;;;;;6.62;100.00;153062.03;5106031;28;20480;-76
2023/03/25 05:59:37;;;;;;;3.37;1.00;;;;;;;6.66;100.00;153072.38;5103466;28;20456;-76
2023/03/25 06:02:06;;;;;;;2.30;1.03;;;;;;;6.69;100.00;153080.13;5097443;27;20428;-76
2023/03/25 06:04:36;;;;;;;2.10;0.80;;;;;;;6.72;100.00;153086.56;5076632;28;20917;-77
2023/03/25 06:07:12;;;;;;;1.60;0.67;;;;;;;6.73;100.00;153089.13;5096811;28;20508;-77
2023/03/25 06:09:44;;;;;;;2.50;1.00;;;;;;;6.74;100.00;153091.72;5074768;28;20483;-77
2023/03/25 06:12:13;;;;;;;1.93;0.90;;;;;;;6.78;100.00;153102.03;5107072;28;20544;-77
2023/03/25 06:14:41;;;;;;;1.70;0.73;;;;;;;6.81;100.00;153109.78;5109040;28;20455;-76
2023/03/25 06:17:09;;;;;;;3.63;1.10;;;;;;;6.87;100.00;153123.97;5097117;28;20440;-77
2023/03/25 06:19:37;;;;;;;2.80;1.07;;;;;;;6.90;100.00;153133.03;5084124;28;20457;-77
2023/03/25 06:22:05;;;;;;;1.83;0.87;;;;;;;6.90;100.00;153133.03;5088435;28;22171;-77
2023/03/25 06:24:31;;;;;;;1.10;0.83;;;;;;;6.92;100.00;153136.88;5093460;28;20931;-77
2023/03/25 06:26:59;;;;;;;2.50;1.23;;;;;;;6.93;100.00;153140.78;5095359;28;20446;-77
2023/03/25 06:29:26;;;;;;;1.60;0.80;;;;;;;6.96;100.00;153148.53;5080788;28;20451;-77
2023/03/25 06:31:53;;;;;;;2.73;0.90;;;;;;;6.99;100.00;153156.25;5090201;28;20562;-77
2023/03/25 06:34:20;;;;;;;1.43;0.90;;;;;;;7.06;100.00;153173.03;5106146;28;20788;-77
2023/03/25 06:36:48;;;;;;;2.90;1.50;;;;;;;7.14;100.00;153195.00;5083951;28;20532;-77
2023/03/25 06:39:15;;;;;;;1.77;0.97;;;;;;;7.18;100.00;153205.31;5092004;28;20449;-77
2023/03/25 06:41:42;;;;;;;1.83;0.77;;;;;;;7.20;100.00;153210.47;5084285;28;20793;-77
2023/03/25 06:44:23;;;;;;;1.20;0.70;;;;;;;7.31;100.00;153238.88;5082359;28;20459;-77
2023/03/25 06:47:08;;;;;;;1.70;0.97;;;;;;;7.44;100.00;153269.91;5103011;28;20444;-77
2023/03/25 06:49:43;;;;;;;2.83;0.97;;;;;;;7.42;100.00;153264.69;5089483;28;20841;-77
2023/03/25 06:52:10;;;;;;;1.37;0.80;;;;;;;7.44;100.00;153269.91;5087688;28;20936;-77
2023/03/25 06:54:37;;;;;;;1.67;1.10;;;;;;;7.56;100.00;153300.88;5106564;28;20457;-77
2023/03/25 06:57:04;;;;;;;2.67;1.40;;;;;;;7.79;100.00;153360.28;5095171;28;20550;-77
2023/03/25 06:59:32;;;;;;;1.07;0.60;;;;;;;7.91;100.00;153391.31;5078248;28;20456;-77
2023/03/25 07:01:59;;;;;;;1.43;0.63;;;;;;;7.97;100.00;153406.78;5094510;28;20441;-77
2023/03/25 07:04:26;;;;;;;1.80;0.90;;;;;;;7.98;100.00;153409.41;5086526;28;20461;-77
2023/03/25 07:06:53;;;;;;;1.97;0.70;;;;;;;7.95;100.00;153402.94;5102318;28;20453;-77
2023/03/25 07:09:20;;;;;;;1.73;0.70;;;;;;;7.94;100.00;153399.09;5107111;28;20502;-77
2023/03/25 07:11:46;;;;;;;1.50;0.80;;;;;;;7.96;100.00;153405.53;5071656;28;20557;-77
2023/03/25 07:14:13;;;;;;;1.60;0.60;;;;;;;7.91;100.00;153392.63;5088637;28;20815;-77
2023/03/25 07:16:41;;;;;;;1.93;0.57;;;;;;;7.90;100.00;153388.72;5098554;28;20544;-77
2023/03/25 07:19:08;;;;;;;1.30;0.70;;;;;;;7.87;100.00;153380.97;5088791;28;20539;-77
2023/03/25 07:21:34;;;;;;;2.90;1.00;;;;;;;7.83;100.00;153370.66;5086665;28;20531;-77
2023/03/25 07:24:01;;;;;;;1.30;0.60;;;;;;;7.79;100.00;153360.28;5088797;28;20449;-77
2023/03/25 07:26:28;;;;;;;1.47;0.53;;;;;;;7.77;100.00;153355.13;5096908;28;20487;-77
2023/03/25 07:28:54;;;;;;;1.60;0.80;;;;;;;7.73;100.00;153346.06;5097239;28;20447;-77
2023/03/25 07:31:21;;;;;;;2.60;0.80;;;;;;;7.73;100.00;153344.81;5087406;28;20456;-77
2023/03/25 07:33:50;;;;;;;1.13;0.50;;;;;;;7.80;100.00;153364.19;5090792;28;20450;-77
2023/03/25 07:36:17;;;;;;;1.53;0.67;;;;;;;7.83;100.00;153370.66;5074273;28;20919;-77
2023/03/25 07:38:44;;;;;;;2.40;1.13;;;;;;;7.87;100.00;153380.97;5087796;28;20813;-77
2023/03/25 07:41:12;;;;;;;1.80;0.93;;;;;;;7.89;100.00;153386.13;5107598;28;20452;-77
2023/03/25 07:43:47;;;;;;;1.00;0.67;;;;;;;7.96;100.00;153404.22;5067597;28;20435;-77
2023/03/25 07:46:25;;;;;;;2.13;1.50;;;;;;;8.15;100.00;153453.34;5072407;28;20448;-77
2023/03/25 07:48:53;;;;;;;5.27;1.97;;;;;;;8.42;100.00;153521.84;5096697;28;20459;-77
2023/03/25 07:51:20;;;;;;;2.70;1.00;;;;;;;8.62;100.00;153572.28;5097922;28;20454;-77
2023/03/25 07:53:47;;;;;;;1.00;0.50;;;;;;;8.89;100.00;153642.13;5098121;28;20445;-77
2023/03/25 07:56:14;;;;;;;2.40;0.63;;;;;;;9.17;100.00;153715.81;5092614;28;20543;-77
2023/03/25 07:58:43;;;;;;;1.50;0.60;;;;;;;9.62;100.00;153830.94;5103358;28;20804;-77
2023/03/25 08:01:10;;;;;;;1.30;0.70;;;;;;;9.94;98.99;153912.47;5098925;28;20454;-77
2023/03/25 08:03:38;;;;;;;1.07;0.53;;;;;;;10.03;95.15;153934.47;5082468;28;20477;-77
2023/03/25 08:06:07;;;;;;;1.10;0.50;;;;;;;10.09;94.75;153951.25;5104644;28;20845;-77
2023/03/25 08:08:34;;;;;;;1.40;0.50;;;;;;;9.99;95.56;153925.38;5082964;28;20576;-77
2023/03/25 08:11:01;;;;;;;1.67;0.67;;;;;;;9.88;95.70;153895.59;5101927;28;20462;-77
2023/03/25 08:13:29;;;;;;;1.93;0.60;;;;;;;9.75;96.00;153864.56;5085672;28;20472;-76
2023/03/25 08:15:55;;;;;;;1.10;0.57;;;;;;;9.72;96.72;153856.81;5085232;28;20834;-78
2023/03/25 08:18:22;;;;;;;1.90;0.63;;;;;;;9.72;97.65;153856.81;5067478;28;20457;-76
2023/03/25 08:20:50;;;;;;;1.07;0.60;;;;;;;9.85;98.66;153889.16;5080516;28;20951;-78
2023/03/25 08:23:18;;;;;;;2.70;0.60;;;;;;;9.82;96.39;153882.69;5082122;28;20445;-78
2023/03/25 08:25:47;;;;;;;4.63;0.90;;;;;;;9.85;98.96;153887.88;5084513;28;20812;-78
2023/03/25 08:28:16;;;;;;;1.50;0.47;;;;;;;9.75;97.57;153864.56;5082491;28;20469;-78
2023/03/25 08:30:43;;;;;;;0.90;0.30;;;;;;;9.72;96.08;153855.50;5081654;28;20452;-78
2023/03/25 08:33:11;;;;;;;2.03;0.40;;;;;;;9.60;95.41;153825.78;5084084;28;20514;-78
2023/03/25 08:35:38;;;;;;;0.80;0.37;;;;;;;9.52;95.22;153805.06;5084139;28;20457;-75
2023/03/25 08:38:05;;;;;;;0.83;0.40;;;;;;;9.42;97.36;153779.22;5085230;28;20943;-77
2023/03/25 08:40:34;;;;;;;1.00;0.30;;;;;;;9.42;97.27;153779.22;5064952;28;20546;-76
2023/03/25 08:43:01;;;;;;;0.80;0.30;;;;;;;9.35;99.34;153761.06;5081573;28;20526;-76
2023/03/25 08:45:27;;;;;;;0.80;0.40;;;;;;;9.25;99.27;153735.22;5083284;28;20498;-76
2023/03/25 08:47:54;;;;;;;0.90;0.40;;;;;;;9.10;100.00;153696.41;5081373;28;20461;-76
2023/03/25 08:50:21;;;;;;;1.10;0.50;;;;;;;8.97;100.00;153662.81;5086374;28;20461;-78
2023/03/25 08:52:48;;;;;;;0.87;0.37;;;;;;;8.88;100.00;153639.50;5081589;28;20458;-78
2023/03/25 08:55:15;;;;;;;2.80;0.40;;;;;;;8.86;100.00;153634.34;5084375;28;20457;-78
2023/03/25 08:57:43;;;;;;;1.07;0.43;;;;;;;8.84;100.00;153629.19;5085506;28;20452;-78
2023/03/25 09:00:12;;;;;;;0.70;0.20;;;;;;;8.87;100.00;153636.94;5084656;28;20584;-78
2023/03/25 09:02:40;;;;;;;1.30;0.40;;;;;;;8.86;100.00;153634.34;5079997;28;20535;-78
2023/03/25 09:05:08;;;;;;;1.87;0.53;;;;;;;8.84;100.00;153629.19;5085310;28;20784;-78
2023/03/25 09:07:35;;;;;;;0.90;0.50;;;;;;;8.82;100.00;153625.28;5100568;28;20574;-78
2023/03/25 09:10:02;;;;;;;1.20;0.80;;;;;;;8.80;100.00;153618.81;5089494;28;20539;-77
2023/03/25 09:12:29;;;;;;;3.07;0.60;;;;;;;8.73;100.00;153602.03;5091528;28;20461;-78
2023/03/25 09:14:57;;;;;;;1.00;0.57;;;;;;;8.72;100.00;153598.13;5091881;28;20535;-78
2023/03/25 09:17:24;;;;;;;1.07;0.40;;;;;;;8.65;100.00;153580.03;5094419;28;20453;-78
2023/03/25 09:19:51;;;;;;;1.00;0.50;;;;;;;8.61;100.00;153569.69;5088104;28;20453;-78
2023/03/25 09:22:18;;;;;;;0.87;0.47;;;;;;;8.57;100.00;153560.66;5088767;28;20474;-78
2023/03/25 09:24:45;;;;;;;2.63;0.90;;;;;;;8.61;100.00;153569.69;5072623;28;20552;-78
2023/03/25 09:27:12;;;;;;;0.77;0.40;;;;;;;8.68;100.00;153587.81;5090953;28;20572;-78
2023/03/25 09:29:39;;;;;;;0.80;0.40;;;;;;;8.75;100.00;153605.91;5092192;28;20464;-78
2023/03/25 09:32:08;;;;;;;1.20;0.50;;;;;;;8.78;100.00;153614.97;5093326;28;20450;-77
2023/03/25 09:34:36;;;;;;;0.80;0.40;;;;;;;8.80;100.00;153618.81;5089853;28;20461;-78
2023/03/25 09:37:03;;;;;;;1.20;0.60;;;;;;;8.81;100.00;153622.72;5098046;28;20445;-76
2023/03/25 09:39:30;;;;;;;2.87;1.03;;;;;;;8.82;100.00;153625.28;5094488;28;20802;-77
2023/03/25 09:42:21;;;;;;;1.57;0.80;;;;;;;8.93;100.00;153652.44;5098279;28;20472;-77
2023/03/25 09:44:53;;;;;;;2.10;0.73;;;;;;;9.03;100.00;153678.28;5093611;28;20464;-78
2023/03/25 09:47:22;;;;;;;1.30;0.50;;;;;;;9.18;100.00;153717.13;5079286;28;20439;-77
2023/03/25 09:49:52;;;;;;;1.80;1.07;;;;;;;9.29;100.00;153745.59;5074013;28;20541;-77
2023/03/25 09:52:24;;;;;;;1.97;0.90;;;;;;;9.40;100.00;153774.00;5089183;28;20492;-77
2023/03/25 09:54:53;;;;;;;2.97;1.00;;;;;;;9.47;100.00;153792.13;5084529;28;20460;-77
2023/03/25 09:57:25;;;;;;;1.00;0.60;;;;;;;9.53;100.00;153807.63;5089390;28;20448;-77
2023/03/25 09:59:53;;;;;;;4.30;0.80;;;;;;;9.69;100.00;153849.03;5090800;28;20453;-77
2023/03/25 10:02:32;;;;;;;2.60;0.70;;;;;;;9.82;100.00;153881.41;5092668;28;20460;-77
2023/03/25 10:05:24;;;;;;;2.27;0.70;;;;;;;9.88;100.00;153895.59;5083532;28;20849;-77
2023/03/25 10:08:04;;;;;;;1.07;0.70;;;;;;;9.98;100.00;153921.53;5076774;28;20480;-77
2023/03/25 10:10:36;;;;;;;2.20;0.70;;;;;;;10.03;100.00;153934.47;5097999;28;20473;-77
2023/03/25 10:13:10;;;;;;;1.60;0.80;;;;;;;10.17;100.00;153970.72;5077775;28;20457;-77
2023/03/25 10:15:40;;;;;;;2.10;0.80;;;;;;;10.30;100.00;154004.38;5095703;28;20456;-78
2023/03/25 10:18:26;;;;;;;2.33;0.90;;;;;;;10.35;100.00;154017.38;5094893;28;20502;-77
2023/03/25 10:21:01;;;;;;;0.90;0.60;;;;;;;10.39;100.00;154029.00;5096989;28;20445;-77
2023/03/25 10:23:34;;;;;;;1.00;0.60;;;;;;;10.42;100.00;154035.47;5081704;28;20437;-77
2023/03/25 10:26:04;;;;;;;1.20;0.53;;;;;;;10.42;100.00;154034.16;5093167;28;20548;-77
2023/03/25 10:28:34;;;;;;;1.60;0.60;;;;;;;10.36;100.00;154021.22;5081066;28;20437;-77
2023/03/25 10:31:02;;;;;;;3.80;0.80;;;;;;;10.47;100.00;154047.13;5094726;28;20456;-77
2023/03/25 10:33:34;;;;;;;1.10;0.60;;;;;;;10.49;100.00;154053.59;5093051;28;20570;-77
2023/03/25 10:36:02;;;;;;;1.20;0.50;;;;;;;10.52;100.00;154061.34;5096071;28;20445;-77
2023/03/25 10:38:30;;;;;;;0.90;0.50;;;;;;;10.58;100.00;154076.91;5093748;28;20487;-77
2023/03/25 10:41:07;;;;;;;1.13;0.57;;;;;;;10.64;100.00;154091.16;5094897;28;20490;-77
2023/03/25 10:43:36;;;;;;;1.00;0.50;;;;;;;10.77;100.00;154126.13;5078884;28;20441;-77
2023/03/25 10:46:11;;;;;;;2.27;0.90;;;;;;;10.89;100.00;154157.19;5087201;28;20473;-77
2023/03/25 10:48:39;;;;;;;1.10;0.70;;;;;;;11.07;100.00;154202.50;5065461;28;20479;-76
2023/03/25 10:51:08;;;;;;;0.90;0.40;;;;;;;11.02;100.00;154189.56;5096028;28;20449;-76
2023/03/25 10:53:35;;;;;;;1.10;0.60;;;;;;;11.11;100.00;154211.59;5098955;28;20827;-77
2023/03/25 10:56:05;;;;;;;1.00;0.50;;;;;;;11.11;100.00;154211.59;5093765;28;20790;-77
2023/03/25 10:58:32;;;;;;;1.00;0.30;;;;;;;11.11;98.10;154211.59;5093036;28;20450;-77
2023/03/25 11:01:00;;;;;;;0.97;0.50;;;;;;;11.09;97.04;154206.41;5081605;28;20754;-77
2023/03/25 11:03:30;;;;;;;0.97;0.40;;;;;;;11.10;97.47;154210.28;5073835;28;20804;-77
2023/03/25 11:05:58;;;;;;;1.30;0.60;;;;;;;11.13;97.62;154216.75;5089418;28;21101;-76
2023/03/25 11:08:26;;;;;;;1.67;0.70;;;;;;;11.09;93.28;154207.72;5091602;28;20532;-77
2023/03/25 11:10:56;;;;;;;1.60;0.67;;;;;;;11.15;95.64;154223.22;5095242;28;20452;-77
2023/03/25 11:13:24;;;;;;;1.83;0.80;;;;;;;11.17;94.93;154228.44;5093240;28;20560;-77
2023/03/25 11:15:52;;;;;;;0.90;0.40;;;;;;;11.22;92.58;154240.09;5109711;27;20549;-77
2023/03/25 11:18:22;;;;;;;3.40;0.67;;;;;;;11.19;90.43;154233.63;5078830;28;20805;-77
2023/03/25 11:20:51;;;;;;;1.37;0.60;;;;;;;11.17;90.49;154228.44;5096957;28;20735;-77
2023/03/25 11:23:25;;;;;;;1.00;0.50;;;;;;;11.16;90.09;154224.53;5092452;28;20453;-77
2023/03/25 11:25:53;;;;;;;2.10;0.60;;;;;;;11.10;91.91;154208.97;5097233;28;20455;-77
2023/03/25 11:28:26;;;;;;;1.00;0.50;;;;;;;11.04;84.90;154194.72;5066483;28;20539;-77
2023/03/25 11:31:11;;;;;;;2.17;0.60;;;;;;;11.12;90.60;154214.19;5092333;28;20511;-76
2023/03/25 11:33:38;;;;;;;1.70;0.67;;;;;;;11.10;89.67;154208.97;5091011;28;20572;-76
2023/03/25 11:36:23;;;;;;;1.10;0.50;;;;;;;11.05;85.14;154196.03;5091096;28;20457;-76